createdAt,value
2022-09-15T00:00:53.333Z,87.96
2022-09-15T00:01:56.424Z,88.19
2022-09-15T00:02:58.928Z,88.27
2022-09-15T00:04:02.467Z,88.38
2022-09-15T00:05:05.254Z,88.15
2022-09-15T00:06:08.967Z,88.15
2022-09-15T00:07:11.136Z,88.55
2022-09-15T00:08:14.930Z,88.61
2022-09-15T00:09:18.041Z,88.66
2022-09-15T00:10:20.183Z,88.55
2022-09-15T00:11:25.350Z,88.74
2022-09-15T00:12:28.093Z,88.94
2022-09-15T00:13:31.273Z,89.01
2022-09-15T00:14:34.714Z,89.75
2022-09-15T00:15:37.761Z,89.33
2022-09-15T00:16:39.892Z,90.03
2022-09-15T00:17:43.255Z,90.29
2022-09-15T00:18:46.160Z,90.42
2022-09-15T00:19:49.240Z,90.97
2022-09-15T00:20:51.289Z,91.19
2022-09-15T00:21:54.377Z,91.35
2022-09-15T00:22:56.591Z,91.97
2022-09-15T00:24:00.805Z,92.26
2022-09-15T00:25:02.965Z,92.62
2022-09-15T00:26:09.084Z,93.01
2022-09-15T00:27:11.130Z,93.82
2022-09-15T00:28:15.635Z,94.00
2022-09-15T00:29:17.677Z,94.76
2022-09-15T00:30:22.195Z,94.54
2022-09-15T00:31:26.074Z,94.98
2022-09-15T00:32:30.447Z,95.26
2022-09-15T00:33:32.540Z,95.61
2022-09-15T00:34:35.888Z,95.75
2022-09-15T00:35:39.474Z,96.10
2022-09-15T00:36:42.567Z,96.78
2022-09-15T00:37:44.595Z,97.17
2022-09-15T00:38:48.367Z,96.75
2022-09-15T00:39:50.561Z,96.97
2022-09-15T00:40:55.502Z,97.46
2022-09-15T00:41:57.592Z,97.50
2022-09-15T00:43:00.630Z,97.94
2022-09-15T00:44:04.818Z,97.96
2022-09-15T00:45:16.863Z,98.52
2022-09-15T00:46:22.768Z,98.54
2022-09-15T00:47:28.615Z,98.63
2022-09-15T00:48:30.709Z,98.64
2022-09-15T00:49:37.608Z,99.03
2022-09-15T00:50:41.342Z,99.39
2022-09-15T00:51:49.557Z,99.24
2022-09-15T00:52:56.896Z,99.33
2022-09-15T00:54:02.973Z,99.59
2022-09-15T00:55:10.305Z,99.69
2022-09-15T00:56:17.358Z,99.92
2022-09-15T00:57:23.508Z,99.79
2022-09-15T00:58:31.756Z,100.00
2022-09-15T00:59:37.474Z,100.00
2022-09-15T01:00:45.766Z,100.00
2022-09-15T01:01:56.054Z,100.00
2022-09-15T01:02:59.159Z,100.00
2022-09-15T01:04:01.743Z,100.00
2022-09-15T01:05:09.227Z,100.00
2022-09-15T01:06:18.113Z,100.00
2022-09-15T01:07:28.118Z,100.00
2022-09-15T01:08:34.608Z,100.00
2022-09-15T01:09:42.944Z,100.00
2022-09-15T01:10:46.638Z,100.00
2022-09-15T01:11:50.088Z,100.00
2022-09-15T01:12:54.054Z,100.00
2022-09-15T01:13:57.379Z,100.00
2022-09-15T01:15:00.648Z,100.00
2022-09-15T01:16:12.584Z,100.00
2022-09-15T01:17:28.521Z,100.00
2022-09-15T01:18:41.315Z,100.00
2022-09-15T01:20:14.483Z,100.00
2022-09-15T01:21:33.218Z,100.00
2022-09-15T01:22:42.222Z,100.00
2022-09-15T01:24:12.729Z,100.00
2022-09-15T01:25:27.867Z,100.00
2022-09-15T01:26:53.769Z,100.00
2022-09-15T01:28:22.798Z,100.00
2022-09-15T01:29:48.648Z,100.00
2022-09-15T01:31:00.447Z,100.00
2022-09-15T01:32:27.736Z,100.00
2022-09-15T01:33:37.365Z,100.00
2022-09-15T01:34:45.092Z,100.00
2022-09-15T01:35:56.957Z,100.00
2022-09-15T01:37:04.970Z,100.00
2022-09-15T01:38:12.884Z,100.00
2022-09-15T01:39:22.725Z,100.00
2022-09-15T01:40:31.068Z,100.00
2022-09-15T01:41:39.013Z,100.00
2022-09-15T01:42:43.471Z,100.00
2022-09-15T01:43:51.597Z,100.00
2022-09-15T01:44:58.980Z,100.00
2022-09-15T01:46:04.450Z,100.00
2022-09-15T01:47:10.249Z,100.00
2022-09-15T01:48:13.405Z,100.00
2022-09-15T01:49:18.707Z,100.00
2022-09-15T01:50:24.236Z,100.00
2022-09-15T01:51:28.508Z,100.00
2022-09-15T01:52:32.724Z,100.00
2022-09-15T01:53:36.423Z,100.00
2022-09-15T01:54:44.285Z,100.00
2022-09-15T01:55:53.608Z,100.00
2022-09-15T01:56:56.134Z,100.00
2022-09-15T01:57:59.729Z,100.00
2022-09-15T01:59:01.832Z,100.00
2022-09-15T02:00:07.161Z,100.00
2022-09-15T02:01:14.592Z,100.00
2022-09-15T02:02:24.020Z,100.00
2022-09-15T02:03:33.258Z,100.00
2022-09-15T02:04:41.854Z,100.00
2022-09-15T02:05:48.870Z,100.00
2022-09-15T02:06:57.424Z,100.00
2022-09-15T02:08:05.434Z,100.00
2022-09-15T02:09:14.036Z,100.00
2022-09-15T02:10:22.191Z,100.00
2022-09-15T02:11:29.005Z,100.00
2022-09-15T02:12:36.317Z,100.00
2022-09-15T02:13:48.812Z,100.00
2022-09-15T02:14:57.565Z,100.00
2022-09-15T02:16:02.339Z,100.00
2022-09-15T02:17:05.505Z,100.00
2022-09-15T02:18:10.515Z,100.00
2022-09-15T02:19:17.457Z,100.00
2022-09-15T02:20:23.714Z,100.00
2022-09-15T02:21:31.666Z,100.00
2022-09-15T02:22:38.916Z,100.00
2022-09-15T02:23:44.195Z,100.00
2022-09-15T02:24:51.302Z,100.00
2022-09-15T02:25:58.175Z,99.98
2022-09-15T02:27:04.309Z,99.89
2022-09-15T02:28:08.557Z,99.96
2022-09-15T02:29:16.152Z,99.94
2022-09-15T02:30:19.947Z,99.84
2022-09-15T02:31:26.495Z,100.00
2022-09-15T02:32:31.613Z,99.99
2022-09-15T02:33:38.162Z,100.00
2022-09-15T02:34:45.395Z,100.00
2022-09-15T02:35:47.932Z,100.00
2022-09-15T02:36:52.966Z,100.00
2022-09-15T02:37:56.395Z,100.00
2022-09-15T02:39:04.623Z,100.00
2022-09-15T02:40:07.545Z,100.00
2022-09-15T02:41:10.950Z,100.00
2022-09-15T02:42:13.382Z,100.00
2022-09-15T02:43:19.365Z,100.00
2022-09-15T02:44:22.137Z,100.00
2022-09-15T02:45:26.910Z,100.00
2022-09-15T02:46:30.515Z,100.00
2022-09-15T02:47:33.590Z,100.00
2022-09-15T02:48:36.141Z,100.00
2022-09-15T02:49:39.225Z,100.00
2022-09-15T02:50:41.374Z,100.00
2022-09-15T02:51:44.432Z,100.00
2022-09-15T02:52:46.722Z,100.00
2022-09-15T02:53:50.033Z,100.00
2022-09-15T02:54:52.166Z,100.00
2022-09-15T02:55:55.226Z,100.00
2022-09-15T02:56:57.436Z,100.00
2022-09-15T02:58:00.815Z,100.00
2022-09-15T02:59:02.925Z,100.00
2022-09-15T03:00:17.339Z,100.00
2022-09-15T03:01:19.558Z,100.00
2022-09-15T03:02:24.930Z,100.00
2022-09-15T03:03:27.122Z,100.00
2022-09-15T03:04:30.257Z,100.00
2022-09-15T03:05:32.328Z,100.00
2022-09-15T03:06:35.985Z,100.00
2022-09-15T03:07:38.582Z,100.00
2022-09-15T03:08:41.727Z,100.00
2022-09-15T03:09:43.823Z,100.00
2022-09-15T03:10:46.835Z,100.00
2022-09-15T03:11:48.947Z,100.00
2022-09-15T03:12:54.253Z,100.00
2022-09-15T03:13:58.386Z,100.00
2022-09-15T03:15:01.470Z,100.00
2022-09-15T03:16:07.607Z,100.00
2022-09-15T03:17:10.817Z,100.00
2022-09-15T03:18:14.257Z,100.00
2022-09-15T03:19:17.397Z,100.00
2022-09-15T03:20:21.576Z,100.00
2022-09-15T03:21:24.704Z,100.00
2022-09-15T03:22:26.771Z,100.00
2022-09-15T03:23:29.896Z,100.00
2022-09-15T03:24:31.982Z,100.00
2022-09-15T03:25:35.030Z,100.00
2022-09-15T03:26:37.073Z,100.00
2022-09-15T03:27:40.805Z,100.00
2022-09-15T03:28:42.870Z,100.00
2022-09-15T03:29:46.699Z,100.00
2022-09-15T03:30:48.891Z,100.00
2022-09-15T03:31:52.159Z,100.00
2022-09-15T03:32:54.348Z,100.00
2022-09-15T03:33:58.761Z,100.00
2022-09-15T03:35:00.981Z,100.00
2022-09-15T03:36:04.561Z,100.00
2022-09-15T03:37:08.276Z,100.00
2022-09-15T03:38:10.573Z,100.00
2022-09-15T03:39:14.048Z,100.00
2022-09-15T03:40:16.442Z,100.00
2022-09-15T03:41:20.024Z,100.00
2022-09-15T03:42:22.118Z,100.00
2022-09-15T03:43:25.692Z,100.00
2022-09-15T03:44:27.778Z,100.00
2022-09-15T03:45:30.882Z,100.00
2022-09-15T03:46:33.232Z,100.00
2022-09-15T03:47:36.331Z,100.00
2022-09-15T03:48:40.521Z,100.00
2022-09-15T03:49:45.133Z,100.00
2022-09-15T03:50:47.269Z,100.00
2022-09-15T03:51:50.386Z,100.00
2022-09-15T03:52:56.725Z,100.00
2022-09-15T03:54:01.866Z,100.00
2022-09-15T03:55:04.342Z,100.00
2022-09-15T03:56:23.212Z,100.00
2022-09-15T03:57:25.269Z,100.00
2022-09-15T03:58:30.777Z,100.00
2022-09-15T03:59:33.053Z,100.00
2022-09-15T04:00:36.310Z,100.00
2022-09-15T04:01:38.651Z,100.00
2022-09-15T04:02:41.771Z,100.00
2022-09-15T04:03:50.151Z,100.00
2022-09-15T04:04:55.407Z,100.00
2022-09-15T04:05:57.580Z,100.00
2022-09-15T04:07:00.749Z,100.00
2022-09-15T04:08:03.237Z,100.00
2022-09-15T04:09:06.861Z,100.00
2022-09-15T04:10:09.945Z,100.00
2022-09-15T04:11:14.291Z,100.00
2022-09-15T04:12:16.747Z,100.00
2022-09-15T04:13:19.841Z,100.00
2022-09-15T04:14:22.030Z,100.00
2022-09-15T04:15:25.677Z,100.00
2022-09-15T04:16:28.439Z,100.00
2022-09-15T04:17:31.620Z,100.00
2022-09-15T04:18:34.519Z,100.00
2022-09-15T04:19:37.573Z,100.00
2022-09-15T04:20:41.453Z,100.00
2022-09-15T04:21:45.765Z,100.00
2022-09-15T04:22:47.826Z,100.00
2022-09-15T04:23:51.391Z,100.00
2022-09-15T04:24:53.527Z,100.00
2022-09-15T04:25:57.807Z,100.00
2022-09-15T04:26:59.970Z,100.00
2022-09-15T04:28:03.288Z,100.00
2022-09-15T04:29:10.995Z,100.00
2022-09-15T04:30:14.362Z,100.00
2022-09-15T04:31:17.581Z,100.00
2022-09-15T04:32:21.024Z,100.00
2022-09-15T04:33:23.121Z,100.00
2022-09-15T04:34:26.216Z,100.00
2022-09-15T04:35:28.922Z,100.00
2022-09-15T04:36:33.573Z,100.00
2022-09-15T04:37:35.642Z,100.00
2022-09-15T04:38:38.788Z,100.00
2022-09-15T04:39:40.844Z,100.00
2022-09-15T04:40:43.973Z,100.00
2022-09-15T04:41:46.275Z,100.00
2022-09-15T04:42:49.364Z,100.00
2022-09-15T04:43:51.510Z,100.00
2022-09-15T04:44:54.610Z,100.00
2022-09-15T04:45:56.743Z,100.00
2022-09-15T04:47:00.408Z,100.00
2022-09-15T04:48:02.921Z,100.00
2022-09-15T04:49:05.956Z,100.00
2022-09-15T04:50:08.540Z,100.00
2022-09-15T04:51:13.934Z,100.00
2022-09-15T04:52:17.416Z,100.00
2022-09-15T04:53:20.829Z,100.00
2022-09-15T04:54:23.396Z,100.00
2022-09-15T04:55:27.035Z,100.00
2022-09-15T04:56:29.231Z,100.00
2022-09-15T04:57:32.553Z,100.00
2022-09-15T04:58:37.325Z,100.00
2022-09-15T04:59:40.412Z,100.00
2022-09-15T05:00:43.653Z,100.00
2022-09-15T05:01:47.643Z,100.00
2022-09-15T05:02:50.234Z,100.00
2022-09-15T05:03:53.613Z,100.00
2022-09-15T05:04:55.677Z,100.00
2022-09-15T05:05:58.705Z,100.00
2022-09-15T05:07:00.842Z,100.00
2022-09-15T05:08:05.571Z,100.00
2022-09-15T05:09:10.545Z,100.00
2022-09-15T05:10:14.178Z,100.00
2022-09-15T05:11:16.627Z,100.00
2022-09-15T05:12:19.701Z,100.00
2022-09-15T05:13:21.758Z,100.00
2022-09-15T05:14:24.877Z,100.00
2022-09-15T05:15:27.057Z,100.00
2022-09-15T05:16:31.287Z,100.00
2022-09-15T05:17:33.967Z,100.00
2022-09-15T05:18:37.033Z,100.00
2022-09-15T05:19:39.124Z,100.00
2022-09-15T05:20:42.208Z,100.00
2022-09-15T05:21:44.297Z,100.00
2022-09-15T05:22:47.311Z,100.00
2022-09-15T05:23:52.037Z,100.00
2022-09-15T05:24:55.481Z,100.00
2022-09-15T05:25:57.544Z,100.00
2022-09-15T05:27:00.593Z,100.00
2022-09-15T05:28:03.075Z,100.00
2022-09-15T05:29:06.150Z,100.00
2022-09-15T05:30:35.539Z,100.00
2022-09-15T05:31:35.154Z,100.00
2022-09-15T05:32:37.347Z,100.00
2022-09-15T05:33:40.732Z,100.00
2022-09-15T05:34:44.081Z,100.00
2022-09-15T05:35:53.382Z,100.00
2022-09-15T05:36:57.159Z,100.00
2022-09-15T05:38:00.199Z,100.00
2022-09-15T05:39:04.735Z,100.00
2022-09-15T05:40:08.719Z,100.00
2022-09-15T05:41:13.918Z,100.00
2022-09-15T05:42:15.958Z,100.00
2022-09-15T05:43:19.479Z,100.00
2022-09-15T05:44:22.628Z,100.00
2022-09-15T05:45:24.656Z,100.00
2022-09-15T05:46:29.325Z,100.00
2022-09-15T05:47:36.357Z,100.00
2022-09-15T05:48:40.157Z,100.00
2022-09-15T05:49:42.223Z,100.00
2022-09-15T05:50:50.560Z,100.00
2022-09-15T05:51:53.554Z,100.00
2022-09-15T05:52:55.721Z,100.00
2022-09-15T05:53:58.794Z,100.00
2022-09-15T05:55:02.191Z,100.00
2022-09-15T05:56:07.191Z,100.00
2022-09-15T05:57:09.311Z,100.00
2022-09-15T05:58:12.892Z,100.00
2022-09-15T05:59:15.931Z,100.00
2022-09-15T06:00:19.010Z,100.00
2022-09-15T06:01:24.151Z,100.00
2022-09-15T06:02:26.368Z,100.00
2022-09-15T06:03:31.049Z,100.00
2022-09-15T06:04:34.309Z,100.00
2022-09-15T06:05:36.333Z,100.00
2022-09-15T06:06:39.374Z,100.00
2022-09-15T06:07:41.516Z,100.00
2022-09-15T06:08:50.943Z,100.00
2022-09-15T06:09:55.195Z,100.00
2022-09-15T06:11:04.449Z,100.00
2022-09-15T06:12:06.842Z,100.00
2022-09-15T06:13:10.056Z,100.00
2022-09-15T06:14:14.021Z,100.00
2022-09-15T06:15:16.118Z,100.00
2022-09-15T06:16:21.079Z,100.00
2022-09-15T06:17:24.283Z,100.00
2022-09-15T06:18:26.327Z,100.00
2022-09-15T06:19:29.365Z,100.00
2022-09-15T06:20:31.438Z,100.00
2022-09-15T06:21:34.696Z,100.00
2022-09-15T06:22:36.735Z,100.00
2022-09-15T06:23:40.608Z,100.00
2022-09-15T06:24:42.648Z,100.00
2022-09-15T06:25:45.660Z,100.00
2022-09-15T06:26:50.277Z,100.00
2022-09-15T06:27:52.393Z,100.00
2022-09-15T06:28:57.473Z,100.00
2022-09-15T06:29:59.644Z,99.78
2022-09-15T06:31:02.789Z,99.68
2022-09-15T06:32:06.006Z,99.39
2022-09-15T06:33:09.109Z,99.09
2022-09-15T06:34:11.766Z,98.83
2022-09-15T06:35:15.241Z,98.76
2022-09-15T06:36:18.417Z,98.56
2022-09-15T06:37:21.567Z,98.54
2022-09-15T06:38:23.640Z,98.48
2022-09-15T06:39:26.771Z,98.49
2022-09-15T06:40:28.895Z,98.57
2022-09-15T06:41:52.480Z,98.61
2022-09-15T06:42:57.007Z,98.89
2022-09-15T06:44:00.023Z,98.93
2022-09-15T06:45:02.188Z,98.94
2022-09-15T06:46:07.872Z,99.05
2022-09-15T06:47:11.007Z,99.19
2022-09-15T06:48:24.588Z,99.32
2022-09-15T06:49:28.726Z,99.28
2022-09-15T06:50:31.122Z,99.04
2022-09-15T06:51:36.004Z,99.14
2022-09-15T06:52:38.020Z,99.11
2022-09-15T06:53:41.522Z,99.40
2022-09-15T06:54:43.565Z,99.45
2022-09-15T06:55:46.663Z,99.40
2022-09-15T06:56:49.702Z,99.58
2022-09-15T06:57:51.937Z,99.40
2022-09-15T06:58:56.876Z,99.67
2022-09-15T06:59:58.967Z,99.59
2022-09-15T07:01:03.589Z,100.00
2022-09-15T07:02:05.667Z,99.80
2022-09-15T07:03:08.915Z,100.00
2022-09-15T07:04:11.296Z,99.75
2022-09-15T07:05:14.459Z,99.70
2022-09-15T07:06:16.563Z,99.64
2022-09-15T07:07:19.698Z,99.44
2022-09-15T07:08:22.724Z,99.83
2022-09-15T07:09:25.743Z,99.40
2022-09-15T07:10:27.872Z,99.53
2022-09-15T07:11:31.679Z,99.56
2022-09-15T07:12:33.725Z,99.10
2022-09-15T07:13:37.443Z,98.75
2022-09-15T07:14:42.791Z,98.91
2022-09-15T07:15:51.415Z,98.23
2022-09-15T07:16:54.554Z,98.25
2022-09-15T07:17:56.589Z,98.09
2022-09-15T07:19:02.014Z,98.08
2022-09-15T07:20:04.958Z,97.71
2022-09-15T07:21:09.797Z,97.51
2022-09-15T07:22:12.088Z,97.18
2022-09-15T07:23:15.166Z,96.70
2022-09-15T07:24:18.290Z,96.68
2022-09-15T07:25:20.377Z,96.43
2022-09-15T07:26:25.699Z,95.97
2022-09-15T07:27:31.582Z,95.71
2022-09-15T07:28:35.200Z,95.54
2022-09-15T07:29:39.291Z,95.56
2022-09-15T07:30:43.857Z,95.19
2022-09-15T07:31:46.935Z,94.98
2022-09-15T07:32:48.962Z,95.21
2022-09-15T07:33:52.387Z,94.91
2022-09-15T07:34:58.120Z,95.26
2022-09-15T07:36:01.970Z,95.35
2022-09-15T07:37:06.314Z,95.31
2022-09-15T07:38:08.432Z,95.41
2022-09-15T07:39:11.552Z,95.08
2022-09-15T07:40:14.049Z,94.57
2022-09-15T07:41:19.210Z,94.72
2022-09-15T07:42:21.188Z,94.84
2022-09-15T07:43:24.382Z,94.35
2022-09-15T07:44:27.560Z,94.36
2022-09-15T07:45:29.651Z,94.20
2022-09-15T07:46:34.670Z,93.94
2022-09-15T07:47:36.778Z,93.98
2022-09-15T07:48:41.974Z,93.89
2022-09-15T07:49:44.156Z,93.99
2022-09-15T07:50:47.940Z,93.72
2022-09-15T07:51:50.992Z,93.79
2022-09-15T07:52:55.467Z,93.31
2022-09-15T07:53:58.715Z,93.70
2022-09-15T07:55:00.730Z,93.62
2022-09-15T07:56:04.315Z,93.66
2022-09-15T07:57:06.581Z,93.50
2022-09-15T07:58:09.793Z,93.38
2022-09-15T07:59:11.891Z,92.97
2022-09-15T08:00:15.881Z,92.94
2022-09-15T08:01:20.226Z,92.96
2022-09-15T08:02:24.729Z,92.79
2022-09-15T08:03:29.363Z,92.60
2022-09-15T08:04:32.419Z,92.44
2022-09-15T08:05:38.698Z,92.09
2022-09-15T08:06:43.407Z,92.06
2022-09-15T08:07:45.522Z,91.74
2022-09-15T08:08:49.117Z,91.48
2022-09-15T08:09:52.307Z,91.43
2022-09-15T08:10:54.784Z,91.33
2022-09-15T08:11:57.952Z,91.32
2022-09-15T08:13:00.234Z,91.39
2022-09-15T08:14:03.790Z,91.32
2022-09-15T08:15:06.378Z,90.90
2022-09-15T08:16:11.021Z,90.44
2022-09-15T08:17:13.181Z,90.24
2022-09-15T08:18:17.748Z,89.79
2022-09-15T08:19:20.788Z,90.06
2022-09-15T08:20:23.791Z,89.83
2022-09-15T08:21:27.663Z,89.86
2022-09-15T08:22:29.873Z,89.68
2022-09-15T08:23:33.426Z,89.35
2022-09-15T08:24:35.544Z,89.26
2022-09-15T08:25:39.190Z,89.20
2022-09-15T08:26:42.213Z,89.17
2022-09-15T08:27:45.188Z,88.66
2022-09-15T08:28:47.404Z,87.76
2022-09-15T08:29:50.460Z,87.50
2022-09-15T08:31:00.966Z,87.14
2022-09-15T08:32:04.112Z,87.33
2022-09-15T08:33:07.142Z,87.08
2022-09-15T08:34:13.088Z,86.82
2022-09-15T08:35:16.832Z,86.91
2022-09-15T08:36:20.859Z,86.63
2022-09-15T08:37:22.986Z,86.88
2022-09-15T08:38:26.037Z,86.62
2022-09-15T08:39:29.099Z,86.10
2022-09-15T08:40:35.632Z,85.78
2022-09-15T08:41:40.965Z,85.30
2022-09-15T08:42:45.087Z,84.62
2022-09-15T08:43:54.264Z,84.63
2022-09-15T08:45:02.665Z,84.53
2022-09-15T08:46:10.876Z,84.10
2022-09-15T08:47:17.470Z,83.91
2022-09-15T08:48:28.254Z,83.23
2022-09-15T08:49:51.157Z,82.42
2022-09-15T08:50:58.038Z,82.41
2022-09-15T08:52:06.082Z,82.09
2022-09-15T08:53:14.008Z,81.60
2022-09-15T08:54:22.094Z,81.16
2022-09-15T08:55:38.614Z,81.37
2022-09-15T08:56:42.807Z,79.72
2022-09-15T08:57:45.113Z,80.94
2022-09-15T08:58:48.303Z,80.30
2022-09-15T08:59:50.455Z,79.80
2022-09-15T09:01:03.431Z,79.63
2022-09-15T09:02:29.532Z,78.24
2022-09-15T09:03:59.011Z,77.86
2022-09-15T09:05:34.372Z,76.59
2022-09-15T09:06:44.910Z,77.24
2022-09-15T09:08:07.251Z,76.94
2022-09-15T09:09:17.295Z,75.88
2022-09-15T09:10:26.547Z,76.56
2022-09-15T09:11:43.280Z,76.35
2022-09-15T09:13:00.925Z,76.47
2022-09-15T09:14:14.355Z,76.02
2022-09-15T09:15:27.037Z,76.10
2022-09-15T09:16:43.601Z,74.95
2022-09-15T09:18:11.404Z,75.25
2022-09-15T09:19:32.535Z,75.19
2022-09-15T09:20:47.405Z,75.13
2022-09-15T09:21:57.071Z,74.80
2022-09-15T09:23:01.867Z,74.82
2022-09-15T09:24:07.575Z,74.58
2022-09-15T09:25:26.567Z,74.11
2022-09-15T09:26:33.742Z,74.27
2022-09-15T09:27:35.818Z,75.10
2022-09-15T09:28:43.364Z,75.08
2022-09-15T09:29:49.600Z,75.38
2022-09-15T09:30:53.627Z,75.93
2022-09-15T09:31:57.692Z,76.40
2022-09-15T09:33:16.124Z,77.18
2022-09-15T09:34:28.694Z,78.87
2022-09-15T09:35:37.646Z,79.20
2022-09-15T09:36:42.664Z,80.45
2022-09-15T09:37:46.105Z,80.68
2022-09-15T09:38:50.157Z,81.44
2022-09-15T09:39:52.237Z,82.14
2022-09-15T09:40:59.863Z,82.83
2022-09-15T09:42:06.879Z,83.67
2022-09-15T09:43:09.357Z,83.95
2022-09-15T09:44:15.259Z,84.43
2022-09-15T09:45:19.640Z,85.39
2022-09-15T09:46:22.847Z,85.97
2022-09-15T09:47:29.609Z,86.54
2022-09-15T09:48:32.251Z,86.52
2022-09-15T09:49:39.350Z,87.18
2022-09-15T09:50:43.213Z,87.34
2022-09-15T09:51:54.416Z,87.51
2022-09-15T09:52:56.425Z,87.82
2022-09-15T09:54:06.294Z,88.51
2022-09-15T09:55:23.198Z,88.81
2022-09-15T09:56:26.855Z,89.02
2022-09-15T09:57:36.563Z,89.42
2022-09-15T09:58:40.697Z,90.00
2022-09-15T09:59:46.268Z,89.62
2022-09-15T10:00:48.371Z,89.88
2022-09-15T10:02:07.588Z,89.89
2022-09-15T10:03:14.231Z,89.81
2022-09-15T10:04:19.403Z,89.99
2022-09-15T10:05:22.514Z,89.20
2022-09-15T10:06:30.243Z,89.03
2022-09-15T10:07:35.477Z,88.53
2022-09-15T10:08:51.255Z,88.30
2022-09-15T10:09:59.147Z,87.10
2022-09-15T10:11:04.507Z,86.12
2022-09-15T10:12:08.651Z,85.38
2022-09-15T10:13:11.437Z,84.56
2022-09-15T10:14:23.188Z,84.29
2022-09-15T10:15:28.182Z,83.42
2022-09-15T10:16:31.318Z,83.11
2022-09-15T10:17:43.639Z,83.07
2022-09-15T10:18:50.957Z,82.31
2022-09-15T10:19:58.647Z,82.36
2022-09-15T10:21:02.424Z,82.10
2022-09-15T10:22:06.270Z,81.94
2022-09-15T10:23:25.010Z,81.51
2022-09-15T10:24:35.308Z,81.52
2022-09-15T10:25:58.216Z,81.22
2022-09-15T10:27:09.933Z,80.50
2022-09-15T10:28:14.154Z,80.64
2022-09-15T10:29:18.890Z,79.82
2022-09-15T10:30:21.811Z,79.18
2022-09-15T10:31:31.484Z,78.62
2022-09-15T10:32:34.727Z,77.33
2022-09-15T10:33:37.975Z,77.00
2022-09-15T10:34:40.971Z,77.27
2022-09-15T10:35:43.103Z,76.91
2022-09-15T10:36:46.781Z,76.02
2022-09-15T10:38:10.072Z,75.09
2022-09-15T10:39:25.381Z,73.08
2022-09-15T10:40:34.717Z,73.80
2022-09-15T10:41:45.850Z,72.05
2022-09-15T10:42:52.861Z,70.89
2022-09-15T10:44:17.610Z,70.58
2022-09-15T10:45:28.856Z,70.34
2022-09-15T10:46:40.904Z,70.15
2022-09-15T10:47:56.619Z,69.83
2022-09-15T10:49:14.663Z,69.41
2022-09-15T10:50:25.181Z,69.27
2022-09-15T10:51:40.121Z,68.67
2022-09-15T10:52:59.275Z,68.82
2022-09-15T10:54:31.692Z,68.30
2022-09-15T10:55:52.602Z,65.23
2022-09-15T10:57:01.338Z,65.95
2022-09-15T10:58:19.272Z,65.69
2022-09-15T10:59:34.674Z,65.34
2022-09-15T11:00:45.561Z,64.96
2022-09-15T11:02:13.277Z,64.87
2022-09-15T11:03:38.748Z,64.30
2022-09-15T11:04:53.625Z,64.03
2022-09-15T11:06:06.250Z,64.09
2022-09-15T11:07:16.721Z,62.13
2022-09-15T11:08:47.176Z,59.36
2022-09-15T11:09:58.754Z,61.15
2022-09-15T11:11:10.668Z,59.82
2022-09-15T11:12:29.353Z,59.95
2022-09-15T11:13:42.253Z,59.98
2022-09-15T11:15:05.788Z,60.15
2022-09-15T11:16:33.242Z,60.60
2022-09-15T11:17:51.504Z,60.88
2022-09-15T11:19:07.633Z,61.13
2022-09-15T11:20:39.673Z,61.71
2022-09-15T11:21:46.405Z,62.10
2022-09-15T11:22:53.800Z,63.67
2022-09-15T11:24:12.217Z,63.34
2022-09-15T11:25:18.772Z,63.64
2022-09-15T11:26:28.363Z,64.33
2022-09-15T11:27:35.534Z,65.52
2022-09-15T11:28:42.874Z,67.25
2022-09-15T11:30:05.864Z,67.72
2022-09-15T11:31:15.446Z,68.35
2022-09-15T11:32:26.557Z,70.06
2022-09-15T11:33:35.859Z,70.73
2022-09-15T11:34:45.830Z,71.83
2022-09-15T11:35:54.549Z,72.59
2022-09-15T11:37:03.915Z,73.41
2022-09-15T11:38:24.263Z,74.46
2022-09-15T11:39:31.625Z,74.58
2022-09-15T11:40:39.566Z,75.26
2022-09-15T11:41:49.606Z,75.31
2022-09-15T11:42:57.371Z,75.43
2022-09-15T11:44:17.683Z,74.89
2022-09-15T11:45:24.994Z,74.86
2022-09-15T11:46:37.120Z,74.72
2022-09-15T11:47:44.207Z,74.81
2022-09-15T11:48:55.083Z,74.38
2022-09-15T11:50:00.803Z,74.33
2022-09-15T11:51:06.527Z,73.45
2022-09-15T11:52:29.559Z,72.75
2022-09-15T11:53:39.272Z,72.36
2022-09-15T11:54:46.735Z,72.11
2022-09-15T11:55:56.952Z,72.13
2022-09-15T11:57:00.125Z,72.30
2022-09-15T11:58:22.330Z,71.83
2022-09-15T11:59:32.946Z,72.17
2022-09-15T12:00:41.318Z,71.93
2022-09-15T12:01:49.688Z,71.95
2022-09-15T12:03:00.998Z,71.55
2022-09-15T12:04:08.615Z,71.71
2022-09-15T12:05:17.690Z,71.08
2022-09-15T12:06:24.877Z,71.22
2022-09-15T12:07:32.814Z,71.39
2022-09-15T12:08:40.418Z,71.45
2022-09-15T12:09:43.606Z,71.75
2022-09-15T12:10:49.860Z,71.66
2022-09-15T12:11:57.940Z,71.63
2022-09-15T12:13:01.200Z,71.78
2022-09-15T12:14:05.643Z,71.38
2022-09-15T12:15:15.944Z,71.07
2022-09-15T12:16:20.566Z,70.87
2022-09-15T12:17:30.492Z,70.31
2022-09-15T12:18:42.838Z,68.72
2022-09-15T12:19:55.816Z,67.51
2022-09-15T12:21:04.750Z,65.71
2022-09-15T12:22:16.207Z,65.32
2022-09-15T12:23:24.863Z,64.71
2022-09-15T12:24:37.652Z,63.84
2022-09-15T12:25:50.801Z,62.78
2022-09-15T12:26:55.359Z,61.38
2022-09-15T12:28:35.388Z,61.05
2022-09-15T12:29:42.188Z,61.22
2022-09-15T12:30:44.777Z,60.90
2022-09-15T12:31:48.054Z,59.79
2022-09-15T12:32:50.045Z,58.92
2022-09-15T12:33:58.269Z,58.75
2022-09-15T12:35:06.508Z,58.55
2022-09-15T12:36:29.064Z,59.29
2022-09-15T12:37:37.833Z,59.35
2022-09-15T12:38:39.991Z,59.67
2022-09-15T12:39:44.567Z,59.58
2022-09-15T12:40:58.997Z,58.83
2022-09-15T12:42:18.467Z,58.38
2022-09-15T12:43:23.098Z,58.77
2022-09-15T12:44:33.812Z,58.43
2022-09-15T12:45:37.042Z,58.23
2022-09-15T12:46:39.529Z,58.59
2022-09-15T12:47:52.090Z,58.13
2022-09-15T12:48:59.520Z,57.70
2022-09-15T12:50:08.656Z,57.83
2022-09-15T12:51:11.739Z,57.77
2022-09-15T12:52:15.264Z,57.81
2022-09-15T12:53:21.666Z,57.73
2022-09-15T12:54:29.510Z,57.31
2022-09-15T12:55:37.428Z,55.93
2022-09-15T12:56:39.488Z,56.26
2022-09-15T12:57:50.293Z,54.44
2022-09-15T12:58:53.654Z,54.65
2022-09-15T13:00:29.387Z,54.24
2022-09-15T13:01:48.639Z,53.23
2022-09-15T13:02:51.672Z,53.37
2022-09-15T13:04:25.704Z,52.58
2022-09-15T13:06:18.275Z,52.19
2022-09-15T13:07:52.747Z,52.03
2022-09-15T13:09:17.001Z,52.17
2022-09-15T13:10:32.106Z,52.16
2022-09-15T13:11:40.555Z,52.48
2022-09-15T13:12:53.289Z,52.92
2022-09-15T13:14:10.693Z,53.79
2022-09-15T13:15:15.044Z,54.49
2022-09-15T13:16:23.611Z,54.63
2022-09-15T13:17:27.174Z,54.48
2022-09-15T13:18:33.275Z,55.10
2022-09-15T13:19:42.230Z,55.64
2022-09-15T13:20:52.287Z,57.53
2022-09-15T13:22:02.511Z,57.81
2022-09-15T13:23:08.713Z,58.50
2022-09-15T13:24:19.922Z,60.70
2022-09-15T13:25:28.252Z,61.34
2022-09-15T13:26:32.175Z,62.18
2022-09-15T13:27:38.138Z,63.49
2022-09-15T13:28:43.004Z,64.98
2022-09-15T13:29:51.719Z,65.93
2022-09-15T13:31:04.198Z,68.32
2022-09-15T13:32:17.054Z,67.75
2022-09-15T13:35:29.399Z,70.80
2022-09-15T13:38:31.420Z,73.47
2022-09-15T13:39:54.097Z,74.72
2022-09-15T13:41:48.755Z,75.33
2022-09-15T13:43:05.109Z,76.05
2022-09-15T13:44:43.049Z,77.69
2022-09-15T13:45:55.976Z,77.28
2022-09-15T13:47:10.794Z,77.86
2022-09-15T13:48:41.691Z,78.19
2022-09-15T13:49:51.562Z,78.47
2022-09-15T13:50:59.662Z,78.60
2022-09-15T13:52:08.231Z,78.98
2022-09-15T13:53:42.674Z,79.25
2022-09-15T13:55:10.344Z,78.71
2022-09-15T13:56:20.332Z,78.78
2022-09-15T13:58:54.493Z,78.82
2022-09-15T13:59:08.654Z,78.40
2022-09-15T14:00:20.787Z,77.47
2022-09-15T14:01:26.888Z,77.45
2022-09-15T14:02:29.554Z,77.28
2022-09-15T14:03:40.316Z,76.89
2022-09-15T14:04:42.206Z,76.63
2022-09-15T14:05:46.650Z,76.19
2022-09-15T14:06:51.398Z,75.77
2022-09-15T14:08:01.150Z,75.36
2022-09-15T14:09:11.140Z,74.85
2022-09-15T14:10:22.328Z,74.96
2022-09-15T14:11:29.441Z,74.34
2022-09-15T14:12:31.528Z,74.31
2022-09-15T14:13:37.415Z,73.95
2022-09-15T14:14:44.267Z,73.66
2022-09-15T14:15:59.336Z,73.18